Time;durP1;ratioP1;P1;durP2;ratioP2;P2;SDS_P1;SDS_P2;PMS_P1;PMS_P2;Temp;Humidity;BMP_temperature;BMP_pressure;BME280_temperature;BME280_humidity;BME280_pressure;Samples;Min_cycle;Max_cycle;Signal;HPM_P1;HPM_P2
2021/03/18 00:00:48;;;;;;;2.37;2.17;;;2.70;90.20;;;;;;4987239;28;20194;-78
2021/03/18 00:03:21;;;;;;;2.27;2.17;;;2.80;90.10;;;;;;4964018;28;20197;-78
2021/03/18 00:05:47;;;;;;;2.27;2.17;;;2.70;90.00;;;;;;4959176;28;20221;-78
2021/03/18 00:08:14;;;;;;;2.10;1.63;;;2.70;89.80;;;;;;4961560;28;20258;-78
2021/03/18 00:10:39;;;;;;;1.73;1.60;;;2.70;89.90;;;;;;4978245;28;20186;-78
2021/03/18 00:13:24;;;;;;;1.93;1.80;;;2.70;89.70;;;;;;4986170;28;20205;-79
2021/03/18 00:15:50;;;;;;;2.33;1.47;;;2.80;89.50;;;;;;4963887;28;20178;-79
2021/03/18 00:18:19;;;;;;;1.63;1.53;;;2.80;89.50;;;;;;4967252;28;20187;-77
2021/03/18 00:20:46;;;;;;;2.63;1.50;;;2.80;89.40;;;;;;5040586;28;20651;-78
2021/03/18 00:23:11;;;;;;;2.70;1.80;;;2.80;89.40;;;;;;5036709;28;20187;-79
2021/03/18 00:25:38;;;;;;;2.07;1.97;;;2.80;89.40;;;;;;5039946;28;20194;-78
2021/03/18 00:28:05;;;;;;;1.83;1.70;;;2.80;89.20;;;;;;5035935;28;20232;-78
2021/03/18 00:30:31;;;;;;;1.47;1.37;;;2.80;89.30;;;;;;5067653;28;21603;-78
2021/03/18 00:32:57;;;;;;;2.10;2.00;;;2.80;89.10;;;;;;5069151;28;20189;-78
2021/03/18 00:35:24;;;;;;;1.37;1.27;;;2.80;89.20;;;;;;5072678;28;20174;-78
2021/03/18 00:37:52;;;;;;;1.50;1.40;;;2.80;89.30;;;;;;5054609;28;20625;-78
2021/03/18 00:40:25;;;;;;;1.37;1.37;;;2.80;89.10;;;;;;5065627;28;20187;-79
2021/03/18 00:42:58;;;;;;;1.60;1.50;;;2.80;89.00;;;;;;5062367;28;20183;-79
2021/03/18 00:45:26;;;;;;;1.83;1.73;;;2.80;89.20;;;;;;5034436;28;20208;-79
2021/03/18 00:47:52;;;;;;;2.17;1.97;;;2.90;89.30;;;;;;5037032;28;20172;-79
2021/03/18 00:50:29;;;;;;;3.07;2.07;;;2.90;89.10;;;;;;5056567;28;20563;-79
2021/03/18 00:52:55;;;;;;;1.97;1.87;;;2.90;89.10;;;;;;5054258;28;20260;-76
2021/03/18 00:55:21;;;;;;;2.20;2.00;;;2.90;89.10;;;;;;5069598;28;20189;-79
2021/03/18 00:57:47;;;;;;;2.77;2.00;;;2.90;88.90;;;;;;5050154;28;20622;-79
2021/03/18 01:00:37;;;;;;;2.80;1.87;;;2.90;89.00;;;;;;5042814;28;20179;-79
2021/03/18 01:03:04;;;;;;;2.17;1.97;;;2.90;88.90;;;;;;5046042;28;20190;-78
2021/03/18 01:05:35;;;;;;;3.80;1.60;;;2.80;88.70;;;;;;5071230;28;20190;-78
2021/03/18 01:08:00;;;;;;;2.30;2.10;;;2.80;88.80;;;;;;5055963;28;20180;-78
2021/03/18 01:10:31;;;;;;;2.20;2.00;;;2.80;88.70;;;;;;5061920;28;20183;-78
2021/03/18 01:13:00;;;;;;;1.93;1.57;;;2.80;88.80;;;;;;5039293;28;20208;-79
2021/03/18 01:15:26;;;;;;;2.50;2.30;;;2.80;88.80;;;;;;5055670;28;20188;-79
2021/03/18 01:17:54;;;;;;;2.87;2.67;;;2.80;88.80;;;;;;5049619;28;20191;-79
2021/03/18 01:20:20;;;;;;;2.17;1.93;;;2.70;88.70;;;;;;5054177;28;20247;-79
2021/03/18 01:22:45;;;;;;;2.57;2.37;;;2.70;88.70;;;;;;5057667;28;20262;-79
2021/03/18 01:25:11;;;;;;;1.67;1.57;;;2.80;88.70;;;;;;5061883;28;20301;-79
2021/03/18 01:27:38;;;;;;;3.57;2.57;;;2.70;88.60;;;;;;5067788;28;20182;-79
2021/03/18 01:30:08;;;;;;;2.00;1.90;;;2.70;88.70;;;;;;5055866;28;20256;-79
2021/03/18 01:32:34;;;;;;;2.10;1.90;;;2.70;88.60;;;;;;5039275;28;20270;-80
2021/03/18 01:34:59;;;;;;;1.93;1.87;;;2.70;88.70;;;;;;5042368;28;20951;-78
2021/03/18 01:37:25;;;;;;;3.90;2.40;;;2.80;88.70;;;;;;5044263;28;20183;-78
2021/03/18 01:39:51;;;;;;;2.47;2.10;;;2.80;88.70;;;;;;5046231;28;20802;-78
2021/03/18 01:42:17;;;;;;;1.93;1.77;;;2.80;88.50;;;;;;5057934;28;20214;-78
2021/03/18 01:44:42;;;;;;;2.77;2.30;;;2.70;88.10;;;;;;5043460;28;20194;-79
2021/03/18 01:47:09;;;;;;;1.80;1.70;;;2.80;88.40;;;;;;5051865;28;20244;-79
2021/03/18 01:49:34;;;;;;;3.17;2.87;;;2.80;88.50;;;;;;5057060;28;20175;-79
2021/03/18 01:52:02;;;;;;;2.27;2.07;;;2.80;88.10;;;;;;5035714;28;20186;-79
2021/03/18 01:54:28;;;;;;;2.27;2.17;;;2.70;88.00;;;;;;5042220;28;20191;-79
2021/03/18 01:56:56;;;;;;;1.73;1.63;;;2.80;87.90;;;;;;5062548;28;20185;-79
2021/03/18 01:59:22;;;;;;;2.40;2.20;;;2.80;87.60;;;;;;5051431;28;20286;-78
2021/03/18 02:01:47;;;;;;;2.33;2.00;;;2.80;87.50;;;;;;5067311;28;20274;-78
2021/03/18 02:04:13;;;;;;;2.23;2.13;;;2.80;87.60;;;;;;5068844;28;20206;-79
2021/03/18 02:06:39;;;;;;;1.47;1.27;;;2.80;87.40;;;;;;5068179;28;20234;-79
2021/03/18 02:09:05;;;;;;;1.60;1.60;;;2.80;87.30;;;;;;5070060;28;20183;-79
2021/03/18 02:11:31;;;;;;;2.10;1.83;;;2.80;87.30;;;;;;5051834;28;20186;-79
2021/03/18 02:13:56;;;;;;;1.70;1.50;;;2.80;87.20;;;;;;5058645;28;20267;-79
2021/03/18 02:16:27;;;;;;;1.70;1.60;;;2.80;87.40;;;;;;5059529;28;20187;-78
2021/03/18 02:19:03;;;;;;;1.57;1.47;;;2.90;87.60;;;;;;5052685;28;20194;-79
2021/03/18 02:21:58;;;;;;;2.00;1.90;;;2.90;87.80;;;;;;5047106;28;20266;-79
2021/03/18 02:24:35;;;;;;;1.63;1.63;;;2.90;88.00;;;;;;5032682;28;20594;-79
2021/03/18 02:27:40;;;;;;;2.63;1.73;;;2.90;87.80;;;;;;5050512;28;20179;-79
2021/03/18 02:30:40;;;;;;;1.50;1.40;;;2.90;88.10;;;;;;5067476;28;20201;-79
2021/03/18 02:33:18;;;;;;;2.40;2.00;;;3.00;88.20;;;;;;5053842;28;20230;-80
2021/03/18 02:35:57;;;;;;;1.73;1.60;;;2.90;88.40;;;;;;5059644;28;20181;-78
2021/03/18 02:38:39;;;;;;;1.50;1.40;;;2.90;88.30;;;;;;5064561;28;20181;-80
2021/03/18 02:41:18;;;;;;;1.77;1.67;;;2.90;88.40;;;;;;5050744;28;20190;-78
2021/03/18 02:44:05;;;;;;;1.03;1.03;;;2.90;88.50;;;;;;5038163;28;20215;-79
2021/03/18 02:46:33;;;;;;;1.87;1.87;;;2.90;88.40;;;;;;5040242;28;20622;-80
2021/03/18 02:49:04;;;;;;;1.80;1.60;;;2.90;88.50;;;;;;5038138;28;20985;-79
2021/03/18 02:51:33;;;;;;;1.70;1.60;;;2.90;88.50;;;;;;5066534;28;20215;-78
2021/03/18 02:54:06;;;;;;;1.90;1.80;;;2.90;88.50;;;;;;5063297;28;20630;-79
2021/03/18 02:56:33;;;;;;;1.73;1.63;;;2.90;88.60;;;;;;5055258;28;20267;-79
2021/03/18 02:59:02;;;;;;;3.03;2.33;;;2.80;88.60;;;;;;5032022;28;20180;-79
2021/03/18 03:01:28;;;;;;;2.03;1.93;;;2.90;88.60;;;;;;5058706;28;20183;-79
2021/03/18 03:03:55;;;;;;;1.80;1.70;;;2.90;88.30;;;;;;5031627;28;20203;-78
2021/03/18 03:06:22;;;;;;;1.33;1.30;;;2.90;88.10;;;;;;5075437;28;20237;-78
2021/03/18 03:08:49;;;;;;;1.63;1.53;;;2.90;88.00;;;;;;5076360;28;20710;-79
2021/03/18 03:11:20;;;;;;;1.90;1.47;;;2.80;88.00;;;;;;5038770;28;20229;-78
2021/03/18 03:13:47;;;;;;;1.87;1.83;;;2.80;87.90;;;;;;5087481;28;20623;-78
2021/03/18 03:16:17;;;;;;;2.50;1.30;;;2.80;87.90;;;;;;5050830;28;20588;-78
2021/03/18 03:18:44;;;;;;;1.60;1.60;;;2.80;87.90;;;;;;5040519;28;20234;-79
2021/03/18 03:21:13;;;;;;;1.37;1.37;;;2.80;87.60;;;;;;5033912;28;20222;-79
2021/03/18 03:23:39;;;;;;;1.43;1.40;;;2.80;87.70;;;;;;5042552;28;20206;-79
2021/03/18 03:26:06;;;;;;;2.60;1.87;;;2.80;87.80;;;;;;5057455;28;20179;-78
2021/03/18 03:28:32;;;;;;;1.63;1.53;;;2.80;87.50;;;;;;5039596;28;20187;-78
2021/03/18 03:31:02;;;;;;;1.70;1.60;;;2.80;87.80;;;;;;5055682;28;20175;-78
2021/03/18 03:33:29;;;;;;;1.60;1.50;;;2.70;87.90;;;;;;5048684;28;20190;-78
2021/03/18 03:35:56;;;;;;;3.27;2.57;;;2.70;88.50;;;;;;5060058;28;20623;-79
2021/03/18 03:38:22;;;;;;;1.87;1.53;;;2.70;88.90;;;;;;5031597;28;20183;-78
2021/03/18 03:40:48;;;;;;;1.40;1.30;;;2.70;89.40;;;;;;5043982;28;20203;-79
2021/03/18 03:43:15;;;;;;;1.40;1.40;;;2.60;89.70;;;;;;5049149;28;20203;-78
2021/03/18 03:45:41;;;;;;;2.97;2.17;;;2.50;90.50;;;;;;5064235;28;20190;-79
2021/03/18 03:48:07;;;;;;;1.33;1.23;;;2.40;90.80;;;;;;5031105;28;20572;-79
2021/03/18 03:50:35;;;;;;;1.40;1.27;;;2.40;91.10;;;;;;5061678;28;20267;-78
2021/03/18 03:53:10;;;;;;;1.87;1.77;;;2.40;91.40;;;;;;5050355;28;20190;-78
2021/03/18 03:56:00;;;;;;;1.83;1.60;;;2.40;91.70;;;;;;5056742;28;20174;-78
2021/03/18 03:58:53;;;;;;;1.73;1.70;;;2.40;91.90;;;;;;5068013;28;20174;-78
2021/03/18 04:01:30;;;;;;;1.00;1.00;;;2.30;91.90;;;;;;5060994;28;20176;-78
2021/03/18 04:04:15;;;;;;;1.70;1.00;;;2.30;91.70;;;;;;5050430;28;20205;-78
2021/03/18 04:06:43;;;;;;;1.27;1.07;;;2.20;92.00;;;;;;5041378;28;20198;-79
2021/03/18 04:09:14;;;;;;;1.27;1.17;;;2.20;91.80;;;;;;5045827;28;20216;-78
2021/03/18 04:11:41;;;;;;;1.23;1.23;;;2.20;91.60;;;;;;5040812;28;20180;-78
2021/03/18 04:14:10;;;;;;;1.23;1.17;;;2.20;91.70;;;;;;5059408;28;20583;-79
2021/03/18 04:16:38;;;;;;;1.53;1.53;;;2.20;91.70;;;;;;5049856;28;20187;-78
2021/03/18 04:19:05;;;;;;;1.13;1.13;;;2.20;91.70;;;;;;5062256;28;20915;-79
2021/03/18 04:21:36;;;;;;;1.80;1.70;;;2.20;91.60;;;;;;5056345;28;20179;-80
2021/03/18 04:24:03;;;;;;;1.03;1.03;;;2.20;91.30;;;;;;5048564;28;20207;-79
2021/03/18 04:26:32;;;;;;;2.00;1.63;;;2.10;91.40;;;;;;5038158;28;20183;-79
2021/03/18 04:29:01;;;;;;;1.47;1.37;;;2.20;91.40;;;;;;5053427;28;20187;-80
2021/03/18 04:31:28;;;;;;;1.40;1.30;;;2.20;91.30;;;;;;5033240;28;20179;-80
2021/03/18 04:33:55;;;;;;;1.33;1.20;;;2.20;91.30;;;;;;5041717;28;20191;-79
2021/03/18 04:36:21;;;;;;;1.47;1.37;;;2.20;91.30;;;;;;5037756;28;20179;-79
2021/03/18 04:38:47;;;;;;;1.50;1.40;;;2.20;91.00;;;;;;5066001;28;20600;-79
2021/03/18 04:41:13;;;;;;;1.87;1.80;;;2.20;91.00;;;;;;5048702;28;20186;-79
2021/03/18 04:43:39;;;;;;;1.67;1.57;;;2.20;90.90;;;;;;5056491;28;20202;-79
2021/03/18 04:46:06;;;;;;;1.90;1.80;;;2.20;90.80;;;;;;5072644;28;20175;-80
2021/03/18 04:48:33;;;;;;;1.90;1.80;;;2.30;90.80;;;;;;5049444;28;20190;-80
2021/03/18 04:50:59;;;;;;;2.10;1.83;;;2.30;90.40;;;;;;5061255;28;20175;-80
2021/03/18 04:53:24;;;;;;;1.40;1.30;;;2.30;90.60;;;;;;5034571;28;20710;-80
2021/03/18 04:55:50;;;;;;;3.57;1.73;;;2.40;90.50;;;;;;5056856;28;20184;-79
2021/03/18 04:58:19;;;;;;;1.20;1.20;;;2.40;90.80;;;;;;5030434;28;20183;-79
2021/03/18 05:00:46;;;;;;;1.63;1.47;;;2.40;90.90;;;;;;5035859;28;20182;-79
2021/03/18 05:03:12;;;;;;;1.87;1.87;;;2.30;91.40;;;;;;5037480;28;20183;-80
2021/03/18 05:05:38;;;;;;;1.60;1.50;;;2.30;91.70;;;;;;5058058;28;20191;-81
2021/03/18 05:08:05;;;;;;;1.80;1.70;;;2.30;91.80;;;;;;5050978;28;20190;-78
2021/03/18 05:10:34;;;;;;;1.30;1.27;;;2.30;91.90;;;;;;5052970;28;20582;-80
2021/03/18 05:13:05;;;;;;;1.70;1.70;;;2.20;92.20;;;;;;5075589;28;20186;-80
2021/03/18 05:15:32;;;;;;;1.30;1.30;;;2.20;92.30;;;;;;5049154;28;20199;-85
2021/03/18 05:17:59;;;;;;;1.70;1.13;;;2.20;92.80;;;;;;5047895;28;20222;-84
2021/03/18 05:20:25;;;;;;;1.40;1.40;;;2.20;93.00;;;;;;5034276;28;20255;-80
2021/03/18 05:22:52;;;;;;;1.50;1.40;;;2.20;93.00;;;;;;5064381;28;20187;-80
2021/03/18 05:25:26;;;;;;;0.90;0.80;;;2.20;93.20;;;;;;5051329;28;20683;-79
2021/03/18 05:27:53;;;;;;;1.37;1.37;;;2.30;93.10;;;;;;5051422;28;20203;-80
2021/03/18 05:30:19;;;;;;;1.70;1.60;;;2.20;93.10;;;;;;5064647;28;20252;-81
2021/03/18 05:32:45;;;;;;;1.63;1.53;;;2.30;93.00;;;;;;5054848;28;20955;-80
2021/03/18 05:35:13;;;;;;;2.43;1.37;;;2.30;93.20;;;;;;5049211;28;20828;-80
2021/03/18 05:37:39;;;;;;;1.23;1.23;;;2.30;93.10;;;;;;5047280;28;20961;-80
2021/03/18 05:40:08;;;;;;;2.00;1.57;;;2.30;92.90;;;;;;5037358;28;20898;-80
2021/03/18 05:42:35;;;;;;;1.37;1.27;;;2.30;92.30;;;;;;5060383;28;20186;-81
2021/03/18 05:45:03;;;;;;;1.40;1.27;;;2.30;92.00;;;;;;5033298;28;20203;-79
2021/03/18 05:47:31;;;;;;;1.50;1.40;;;2.30;92.10;;;;;;5078229;28;20184;-79
2021/03/18 05:49:58;;;;;;;1.67;1.57;;;2.40;92.00;;;;;;5069224;28;20177;-81
2021/03/18 05:52:27;;;;;;;1.17;1.17;;;2.40;91.80;;;;;;5041273;28;20274;-76
2021/03/18 05:54:54;;;;;;;1.23;1.23;;;2.40;91.60;;;;;;5069414;28;20199;-75
2021/03/18 05:57:20;;;;;;;1.03;1.03;;;2.50;91.40;;;;;;5061573;28;20203;-76
2021/03/18 05:59:47;;;;;;;1.40;1.40;;;2.50;90.20;;;;;;5065306;28;20226;-77
2021/03/18 06:02:16;;;;;;;2.00;1.63;;;2.60;90.10;;;;;;5047718;28;20183;-76
2021/03/18 06:04:43;;;;;;;2.03;1.40;;;2.60;89.30;;;;;;5053638;28;20279;-75
2021/03/18 06:07:09;;;;;;;0.83;0.83;;;2.70;88.90;;;;;;5059379;28;20179;-78
2021/03/18 06:09:35;;;;;;;1.47;1.37;;;2.70;88.80;;;;;;5053074;28;20192;-78
2021/03/18 06:12:02;;;;;;;1.07;1.07;;;2.70;89.10;;;;;;5043423;28;20190;-77
2021/03/18 06:14:27;;;;;;;1.73;1.73;;;2.70;89.30;;;;;;5069765;28;20573;-74
2021/03/18 06:16:54;;;;;;;1.47;1.47;;;2.70;89.40;;;;;;5069761;28;20195;-77
2021/03/18 06:19:20;;;;;;;1.53;1.43;;;2.70;89.80;;;;;;5050223;28;20182;-77
2021/03/18 06:21:53;;;;;;;2.80;2.57;;;2.70;89.80;;;;;;5051418;28;20198;-80
2021/03/18 06:24:20;;;;;;;2.93;1.90;;;2.70;89.80;;;;;;5039302;28;20222;-83
2021/03/18 06:26:46;;;;;;;1.93;1.83;;;2.70;90.30;;;;;;5052155;28;20248;-86
2021/03/18 06:29:35;;;;;;;1.17;1.07;;;2.80;90.20;;;;;;5070037;28;20659;-81
2021/03/18 06:32:15;;;;;;;1.20;1.20;;;2.80;90.00;;;;;;5067079;28;20185;-73
2021/03/18 06:35:00;;;;;;;1.37;1.37;;;2.80;89.90;;;;;;5049223;28;20202;-73
2021/03/18 06:37:50;;;;;;;1.23;1.23;;;2.90;89.80;;;;;;5064807;28;20198;-73
2021/03/18 06:40:20;;;;;;;1.40;1.30;;;2.90;89.80;;;;;;5065696;28;20179;-73
2021/03/18 06:43:01;;;;;;;1.50;1.40;;;3.00;89.80;;;;;;5059487;28;20332;-73
2021/03/18 06:45:51;;;;;;;1.60;1.33;;;3.10;89.70;;;;;;5050764;28;20202;-73
2021/03/18 06:48:16;;;;;;;1.63;1.53;;;3.10;88.70;;;;;;5048190;28;20245;-74
2021/03/18 06:50:48;;;;;;;1.43;1.33;;;3.20;88.90;;;;;;5030305;28;20183;-72
2021/03/18 06:53:30;;;;;;;1.30;1.20;;;3.30;88.20;;;;;;5032690;28;20199;-71
2021/03/18 06:55:57;;;;;;;1.40;1.30;;;3.40;87.20;;;;;;5050190;28;20210;-71
2021/03/18 06:58:24;;;;;;;1.03;1.03;;;3.50;86.40;;;;;;5057592;28;20297;-72
2021/03/18 07:00:56;;;;;;;1.10;1.03;;;3.60;85.80;;;;;;5056136;28;20290;-72
2021/03/18 07:03:37;;;;;;;3.03;1.50;;;3.80;85.80;;;;;;5062661;28;20198;-73
2021/03/18 07:06:05;;;;;;;1.20;1.20;;;3.90;84.50;;;;;;5046342;28;20209;-75
2021/03/18 07:08:33;;;;;;;1.73;1.17;;;3.90;83.30;;;;;;5062588;28;20171;-72
2021/03/18 07:11:00;;;;;;;1.77;1.03;;;3.90;83.00;;;;;;5044250;28;21748;-73
2021/03/18 07:13:29;;;;;;;1.10;1.10;;;3.90;83.60;;;;;;5044805;28;20615;-72
2021/03/18 07:15:56;;;;;;;1.03;1.03;;;4.00;83.60;;;;;;5064034;28;20182;-72
2021/03/18 07:18:22;;;;;;;1.60;1.27;;;4.10;83.30;;;;;;5047602;28;20175;-72
2021/03/18 07:21:04;;;;;;;0.90;0.90;;;4.20;82.80;;;;;;5064758;28;20685;-73
2021/03/18 07:23:42;;;;;;;1.00;1.00;;;4.10;82.00;;;;;;5062587;28;20183;-73
2021/03/18 07:26:20;;;;;;;1.00;1.00;;;4.00;81.90;;;;;;5065034;28;20608;-73
2021/03/18 07:29:10;;;;;;;1.43;1.23;;;3.90;82.30;;;;;;5044527;28;20206;-73
2021/03/18 07:31:37;;;;;;;1.03;0.90;;;3.80;82.70;;;;;;5063706;28;20505;-73
2021/03/18 07:34:04;;;;;;;1.10;1.10;;;3.90;83.10;;;;;;5063717;28;20972;-73
2021/03/18 07:36:30;;;;;;;0.93;0.93;;;3.90;82.80;;;;;;5063603;28;20554;-73
2021/03/18 07:38:56;;;;;;;1.47;1.37;;;4.00;83.10;;;;;;5053002;28;20180;-74
2021/03/18 07:41:23;;;;;;;1.07;1.07;;;4.10;82.80;;;;;;5060370;28;20260;-72
2021/03/18 07:43:49;;;;;;;0.93;0.93;;;4.20;82.50;;;;;;5058025;28;20217;-72
2021/03/18 07:46:18;;;;;;;1.63;1.53;;;4.20;82.30;;;;;;5058703;28;20179;-73
2021/03/18 07:48:48;;;;;;;3.47;1.77;;;4.20;81.50;;;;;;5038937;28;20179;-72
2021/03/18 07:51:15;;;;;;;1.37;1.20;;;4.20;81.60;;;;;;5058854;28;20182;-72
2021/03/18 07:53:45;;;;;;;1.07;0.87;;;4.20;81.30;;;;;;5055682;28;20580;-72
2021/03/18 07:56:14;;;;;;;1.30;1.30;;;4.30;81.60;;;;;;5062332;28;20272;-71
2021/03/18 07:58:45;;;;;;;1.50;1.40;;;4.40;81.50;;;;;;5061186;28;20218;-72
2021/03/18 08:01:29;;;;;;;2.03;1.80;;;4.50;81.40;;;;;;5059402;28;20190;-72
2021/03/18 08:03:55;;;;;;;1.60;1.50;;;4.60;80.50;;;;;;5054377;28;20651;-73
2021/03/18 08:06:39;;;;;;;1.37;1.27;;;4.50;80.80;;;;;;5041311;28;20179;-72
2021/03/18 08:09:24;;;;;;;1.50;1.43;;;4.60;81.20;;;;;;5058390;28;20240;-73
2021/03/18 08:11:49;;;;;;;1.63;1.53;;;4.80;80.60;;;;;;5058272;28;20187;-73
2021/03/18 08:14:24;;;;;;;1.47;1.40;;;4.80;80.60;;;;;;5052963;28;20645;-74
2021/03/18 08:16:51;;;;;;;2.37;1.77;;;4.90;80.60;;;;;;5050903;28;20229;-72
2021/03/18 08:19:19;;;;;;;1.93;1.63;;;4.90;80.20;;;;;;5034428;28;20194;-73
2021/03/18 08:22:02;;;;;;;1.40;1.30;;;4.80;80.60;;;;;;5062231;28;20187;-72
2021/03/18 08:24:32;;;;;;;1.63;1.53;;;4.80;80.90;;;;;;5057326;28;20206;-73
2021/03/18 08:27:06;;;;;;;1.13;1.13;;;4.90;80.70;;;;;;5030063;28;20274;-72
2021/03/18 08:29:40;;;;;;;1.20;1.20;;;5.10;80.40;;;;;;5055654;28;20205;-73
2021/03/18 08:32:09;;;;;;;1.10;1.10;;;5.40;79.80;;;;;;5040570;28;20179;-73
2021/03/18 08:34:41;;;;;;;0.90;0.90;;;5.40;78.60;;;;;;5059387;28;20764;-72
2021/03/18 08:37:07;;;;;;;1.77;1.67;;;5.30;78.30;;;;;;5055813;28;20213;-73
2021/03/18 08:39:48;;;;;;;1.03;1.00;;;5.20;79.20;;;;;;5062590;28;20270;-73
2021/03/18 08:42:31;;;;;;;1.20;1.10;;;5.30;79.40;;;;;;5063979;28;20720;-71
2021/03/18 08:45:09;;;;;;;1.73;1.20;;;5.40;79.60;;;;;;5067441;28;20377;-72
2021/03/18 08:47:43;;;;;;;1.17;1.07;;;5.50;78.90;;;;;;5061852;28;20173;-70
2021/03/18 08:50:26;;;;;;;1.30;1.30;;;5.40;78.80;;;;;;5067177;28;20178;-72
2021/03/18 08:52:53;;;;;;;1.90;1.13;;;5.40;77.90;;;;;;5065883;28;20226;-72
2021/03/18 08:55:37;;;;;;;1.93;1.83;;;5.40;77.20;;;;;;5065441;28;20271;-72
2021/03/18 08:58:04;;;;;;;5.47;1.23;;;5.50;76.90;;;;;;5065336;28;20206;-72
2021/03/18 09:00:31;;;;;;;1.00;1.00;;;5.80;77.00;;;;;;5046809;28;20187;-72
2021/03/18 09:02:57;;;;;;;1.60;1.50;;;6.00;76.50;;;;;;5044776;28;20704;-73
2021/03/18 09:05:24;;;;;;;1.73;1.63;;;6.20;77.00;;;;;;5067795;28;20206;-73
2021/03/18 09:07:54;;;;;;;1.53;1.43;;;6.30;76.80;;;;;;5062720;28;20679;-72
2021/03/18 09:10:24;;;;;;;1.03;1.03;;;6.20;76.50;;;;;;5048178;28;20293;-72
2021/03/18 09:12:55;;;;;;;2.30;1.57;;;6.10;76.50;;;;;;5064716;28;20261;-72
2021/03/18 09:15:23;;;;;;;2.77;2.27;;;6.00;77.10;;;;;;5067705;28;20249;-73
2021/03/18 09:17:53;;;;;;;1.50;1.50;;;5.90;77.10;;;;;;5067263;28;20199;-73
2021/03/18 09:20:28;;;;;;;0.87;0.87;;;5.70;76.60;;;;;;5045837;28;20219;-72
2021/03/18 09:22:54;;;;;;;1.27;1.27;;;5.70;77.20;;;;;;5066638;28;20178;-73
2021/03/18 09:25:26;;;;;;;1.27;0.90;;;5.60;76.80;;;;;;5047791;28;20255;-73
2021/03/18 09:27:52;;;;;;;2.00;1.20;;;5.60;77.30;;;;;;5064929;28;20831;-76
2021/03/18 09:30:31;;;;;;;1.10;0.97;;;5.60;77.30;;;;;;5067513;28;20214;-77
2021/03/18 09:32:57;;;;;;;1.07;1.07;;;5.60;77.30;;;;;;5065308;28;20186;-77
2021/03/18 09:35:25;;;;;;;0.73;0.73;;;5.60;77.50;;;;;;5057329;28;20265;-76
2021/03/18 09:37:51;;;;;;;1.10;1.10;;;5.60;77.50;;;;;;5070071;28;20184;-78
2021/03/18 09:40:18;;;;;;;1.10;1.00;;;5.40;78.80;;;;;;5074823;28;20199;-77
2021/03/18 09:42:44;;;;;;;0.70;0.70;;;5.20;79.60;;;;;;5076474;28;20186;-78
2021/03/18 09:45:18;;;;;;;1.97;0.97;;;5.00;81.20;;;;;;5045735;28;20222;-77
2021/03/18 09:47:48;;;;;;;1.67;1.20;;;4.90;83.00;;;;;;5055765;28;20194;-77
2021/03/18 09:50:16;;;;;;;1.07;1.07;;;5.20;84.60;;;;;;5037627;28;20269;-78
2021/03/18 09:52:42;;;;;;;1.17;1.17;;;5.80;83.80;;;;;;5069732;28;20561;-77
2021/03/18 09:55:14;;;;;;;2.13;1.60;;;6.10;81.20;;;;;;5069647;28;20190;-77
2021/03/18 09:57:40;;;;;;;1.33;1.30;;;6.10;80.30;;;;;;5059735;28;20194;-78
2021/03/18 10:00:07;;;;;;;4.23;1.57;;;6.00;80.60;;;;;;5041222;28;20186;-77
2021/03/18 10:02:33;;;;;;;1.87;1.40;;;5.80;81.40;;;;;;5069151;28;20186;-77
2021/03/18 10:04:59;;;;;;;1.30;1.20;;;5.70;82.70;;;;;;5065585;28;20206;-76
2021/03/18 10:07:27;;;;;;;1.43;1.30;;;5.50;82.50;;;;;;5065417;28;20514;-76
2021/03/18 10:09:53;;;;;;;2.30;1.80;;;5.30;83.40;;;;;;5063626;28;20187;-77
2021/03/18 10:12:21;;;;;;;1.80;1.70;;;5.30;83.60;;;;;;5062613;28;20182;-76
2021/03/18 10:14:55;;;;;;;1.70;1.60;;;5.50;82.60;;;;;;5065660;28;20194;-84
2021/03/18 10:17:25;;;;;;;1.00;1.00;;;5.80;81.60;;;;;;5067213;28;20174;-76
2021/03/18 10:20:33;;;;;;;1.23;1.13;;;5.80;80.30;;;;;;5062250;28;20187;-78
2021/03/18 10:23:06;;;;;;;1.63;1.53;;;5.70;81.00;;;;;;4964152;28;20186;-78
2021/03/18 10:25:34;;;;;;;1.40;0.97;;;5.80;82.10;;;;;;4979432;28;20201;-76
2021/03/18 10:28:00;;;;;;;1.10;0.90;;;6.20;81.30;;;;;;4984185;28;20204;-76
2021/03/18 10:30:26;;;;;;;1.30;1.20;;;6.20;80.00;;;;;;4982167;28;20190;-74
2021/03/18 10:33:18;;;;;;;0.70;0.70;;;6.00;80.70;;;;;;4984954;28;20190;-75
2021/03/18 10:35:46;;;;;;;1.17;1.10;;;6.10;80.30;;;;;;4986732;28;20208;-76
2021/03/18 10:38:19;;;;;;;1.20;1.10;;;5.90;79.50;;;;;;4972331;28;20200;-74
2021/03/18 10:40:49;;;;;;;1.17;1.17;;;6.10;80.40;;;;;;4982021;28;20245;-74
2021/03/18 10:43:20;;;;;;;0.80;0.80;;;6.10;79.40;;;;;;4983875;28;20289;-74
2021/03/18 10:45:46;;;;;;;1.27;1.20;;;5.90;78.40;;;;;;4978779;28;20284;-73
2021/03/18 10:48:18;;;;;;;2.17;1.40;;;5.80;78.00;;;;;;4980909;28;20193;-73
2021/03/18 10:50:43;;;;;;;1.07;1.07;;;5.70;78.40;;;;;;4977400;28;20193;-75
2021/03/18 10:53:11;;;;;;;0.87;0.87;;;5.60;78.90;;;;;;5002900;28;20206;-74
2021/03/18 10:55:43;;;;;;;1.70;1.60;;;5.60;79.60;;;;;;5064760;28;20183;-75
2021/03/18 10:58:14;;;;;;;1.30;1.13;;;5.40;80.40;;;;;;5043575;28;20205;-75
2021/03/18 11:00:41;;;;;;;1.53;1.20;;;5.40;80.80;;;;;;5062793;28;20210;-74
2021/03/18 11:03:12;;;;;;;1.30;1.30;;;5.40;80.80;;;;;;5043024;28;20317;-75
2021/03/18 11:05:49;;;;;;;1.70;1.43;;;5.50;80.30;;;;;;5064638;28;20377;-74
2021/03/18 11:08:17;;;;;;;2.00;1.80;;;5.80;80.40;;;;;;5064796;28;20178;-74
2021/03/18 11:10:48;;;;;;;1.50;1.20;;;6.00;79.50;;;;;;5065198;28;20294;-74
2021/03/18 11:13:23;;;;;;;1.40;1.23;;;6.30;78.20;;;;;;5062681;28;20694;-73
2021/03/18 11:16:03;;;;;;;1.20;1.10;;;6.30;74.90;;;;;;5055477;28;20228;-74
2021/03/18 11:18:36;;;;;;;1.30;1.30;;;6.10;75.00;;;;;;5063003;28;20183;-74
2021/03/18 11:21:34;;;;;;;1.30;1.30;;;6.00;75.80;;;;;;5064806;28;20252;-75
2021/03/18 11:24:08;;;;;;;1.20;1.20;;;5.80;76.60;;;;;;5079046;28;20214;-85
2021/03/18 11:26:35;;;;;;;0.87;0.87;;;5.60;77.20;;;;;;5078488;28;20753;-82
2021/03/18 11:29:04;;;;;;;1.20;1.10;;;5.40;77.50;;;;;;5047121;28;20635;-81
2021/03/18 11:31:31;;;;;;;0.97;0.97;;;5.30;78.20;;;;;;5037104;28;20908;-79
2021/03/18 11:34:12;;;;;;;3.00;1.43;;;5.40;78.60;;;;;;5061609;28;20183;-79
2021/03/18 11:36:37;;;;;;;1.37;1.20;;;5.80;78.50;;;;;;5062686;28;20618;-82
2021/03/18 11:39:03;;;;;;;1.20;1.10;;;6.20;77.20;;;;;;5042029;28;20272;-85
2021/03/18 11:41:29;;;;;;;1.27;1.27;;;6.40;76.00;;;;;;5044700;28;20244;-79
2021/03/18 11:43:55;;;;;;;0.90;0.90;;;6.40;75.10;;;;;;5067769;28;20202;-81
2021/03/18 11:46:21;;;;;;;1.00;0.97;;;6.40;75.60;;;;;;5045896;28;20706;-79
2021/03/18 11:48:47;;;;;;;1.30;1.20;;;6.40;75.70;;;;;;5047853;28;20206;-80
2021/03/18 11:51:13;;;;;;;1.37;1.37;;;6.50;76.20;;;;;;5042643;28;20204;-81
2021/03/18 11:53:38;;;;;;;1.07;1.07;;;6.40;76.20;;;;;;5045585;28;20196;-80
2021/03/18 11:56:04;;;;;;;1.30;1.30;;;6.50;75.60;;;;;;5031960;28;20183;-81
2021/03/18 11:58:30;;;;;;;1.57;1.40;;;6.50;75.10;;;;;;5068884;28;20210;-81
2021/03/18 12:01:00;;;;;;;2.50;2.30;;;6.50;75.20;;;;;;5061783;28;20269;-84
2021/03/18 12:03:25;;;;;;;0.93;0.93;;;6.40;75.40;;;;;;5047934;28;20179;-80
2021/03/18 12:05:51;;;;;;;2.20;1.50;;;6.60;76.10;;;;;;5045174;28;20207;-79
2021/03/18 12:08:38;;;;;;;1.20;1.20;;;7.10;75.20;;;;;;5044720;28;20656;-80
2021/03/18 12:11:05;;;;;;;1.93;1.83;;;7.30;73.90;;;;;;5048728;28;20167;-80
2021/03/18 12:13:34;;;;;;;1.40;1.30;;;7.50;73.60;;;;;;5067229;28;20183;-80
2021/03/18 12:16:04;;;;;;;1.80;1.70;;;7.50;72.90;;;;;;5067208;28;20171;-81
2021/03/18 12:18:30;;;;;;;1.70;1.60;;;7.40;73.20;;;;;;5036103;28;20183;-81
2021/03/18 12:20:56;;;;;;;3.13;1.80;;;7.20;72.40;;;;;;5067652;28;20182;-81
2021/03/18 12:23:23;;;;;;;2.03;1.93;;;7.10;72.50;;;;;;5072600;28;20179;-80
2021/03/18 12:25:51;;;;;;;2.20;1.57;;;7.00;72.40;;;;;;5051922;28;20195;-80
2021/03/18 12:28:19;;;;;;;0.83;0.83;;;6.90;72.30;;;;;;5065664;28;20257;-81
2021/03/18 12:30:48;;;;;;;1.53;1.43;;;7.20;72.40;;;;;;5050319;28;20179;-81
2021/03/18 12:33:18;;;;;;;1.30;1.20;;;7.90;71.80;;;;;;5037022;28;20256;-81
2021/03/18 12:35:49;;;;;;;1.47;1.47;;;9.00;71.50;;;;;;5054485;28;20187;-80
2021/03/18 12:38:16;;;;;;;1.40;1.40;;;10.20;68.20;;;;;;5063410;28;20291;-81
2021/03/18 12:40:42;;;;;;;1.80;1.70;;;10.90;66.20;;;;;;5043715;28;20247;-80
2021/03/18 12:43:08;;;;;;;2.07;2.03;;;11.10;65.70;;;;;;5050956;28;20194;-80
2021/03/18 12:45:34;;;;;;;2.17;2.07;;;11.00;65.40;;;;;;5051850;28;20279;-81
2021/03/18 12:48:00;;;;;;;1.80;1.70;;;10.60;65.60;;;;;;5069347;28;20236;-80
2021/03/18 12:50:27;;;;;;;1.57;1.57;;;10.20;65.50;;;;;;5068699;28;20171;-81
2021/03/18 12:52:54;;;;;;;1.63;1.53;;;9.70;66.30;;;;;;5067471;28;20623;-80
2021/03/18 12:55:21;;;;;;;2.20;2.13;;;9.30;67.30;;;;;;5062572;28;20191;-82
2021/03/18 12:57:47;;;;;;;2.80;2.27;;;9.00;68.40;;;;;;5059633;28;20215;-80
2021/03/18 13:00:16;;;;;;;2.50;2.33;;;8.60;69.30;;;;;;5046318;28;20280;-80
2021/03/18 13:02:42;;;;;;;5.17;1.73;;;8.40;70.10;;;;;;5054118;28;20726;-80
2021/03/18 13:05:09;;;;;;;2.47;2.23;;;8.30;70.30;;;;;;5063639;28;20308;-80
2021/03/18 13:07:37;;;;;;;2.43;1.37;;;8.10;70.50;;;;;;5070335;28;20206;-80
2021/03/18 13:10:05;;;;;;;3.63;2.10;;;7.90;70.00;;;;;;5065374;28;20182;-80
2021/03/18 13:12:31;;;;;;;1.97;1.87;;;7.40;70.60;;;;;;5068841;28;20179;-79